Time,TemperatureF,DewpointF,PressureIn,WindDirection,WindDirectionDegrees,WindSpeedMPH,WindSpeedGustMPH,Humidity,HourlyPrecipIn,Conditions,Clouds,dailyrainin,SolarRadiationWatts/m^2,SoftwareType,DateUTC
2013-05-29 00:02:00,74.0,64.0,-100.00,SSW,199,5.0,11.0,70,0.00,,,0.05,0.000000,,2013-05-29 05:02:00,
2013-05-29 00:12:00,74.0,64.0,-100.00,SSW,199,5.0,11.0,70,0.00,,,0.05,0.000000,,2013-05-29 05:12:00,
2013-05-29 00:33:00,72.0,63.0,-100.00,South,178,4.0,10.0,74,0.00,,,0.04,0.000000,,2013-05-29 05:33:00,
2013-05-29 00:42:00,72.0,63.0,-100.00,South,178,4.0,10.0,74,0.00,,,0.04,0.000000,,2013-05-29 05:42:00,
2013-05-29 00:52:00,72.0,63.0,-100.00,South,178,4.0,10.0,74,0.00,,,0.04,0.000000,,2013-05-29 05:52:00,
2013-05-29 01:01:00,72.0,63.0,-100.00,South,178,4.0,10.0,74,0.00,,,0.04,0.000000,,2013-05-29 06:01:00,
2013-05-29 01:11:00,72.0,63.0,-100.00,South,178,4.0,10.0,74,0.00,,,0.04,0.000000,,2013-05-29 06:11:00,
2013-05-29 01:32:00,70.0,63.0,-100.00,South,172,4.0,9.0,79,0.00,,,0.04,0.000000,,2013-05-29 06:32:00,
2013-05-29 01:42:00,70.0,63.0,-100.00,South,172,4.0,9.0,79,0.00,,,0.04,0.000000,,2013-05-29 06:42:00,
2013-05-29 01:52:00,70.0,63.0,-100.00,South,172,4.0,9.0,79,0.00,,,0.04,0.000000,,2013-05-29 06:52:00,
2013-05-29 02:01:00,70.0,63.0,-100.00,South,172,4.0,9.0,79,0.00,,,0.04,0.000000,,2013-05-29 07:01:00,
2013-05-29 02:11:00,70.0,63.0,-100.00,South,172,4.0,9.0,79,0.00,,,0.04,0.000000,,2013-05-29 07:11:00,
2013-05-29 02:34:00,70.0,63.0,-100.00,SE,142,5.0,8.0,78,0.00,,,0.04,0.000000,,2013-05-29 07:34:00,
2013-05-29 02:42:00,70.0,63.0,-100.00,SE,142,5.0,8.0,78,0.00,,,0.04,0.000000,,2013-05-29 07:42:00,
2013-05-29 02:52:00,70.0,63.0,-100.00,SE,142,5.0,8.0,78,0.00,,,0.04,0.000000,,2013-05-29 07:52:00,
2013-05-29 03:02:00,70.0,63.0,-100.00,SE,142,5.0,8.0,78,0.00,,,0.04,0.000000,,2013-05-29 08:02:00,
2013-05-29 03:11:00,70.0,63.0,-100.00,SE,142,5.0,8.0,78,0.00,,,0.04,0.000000,,2013-05-29 08:11:00,
2013-05-29 03:32:00,69.0,63.0,-100.00,SSE,150,2.0,10.0,80,0.00,,,0.04,0.000000,,2013-05-29 08:32:00,
2013-05-29 03:42:00,69.0,63.0,-100.00,SSE,150,2.0,10.0,80,0.00,,,0.04,0.000000,,2013-05-29 08:42:00,
2013-05-29 03:52:00,69.0,63.0,-100.00,SSE,150,2.0,10.0,80,0.00,,,0.04,0.000000,,2013-05-29 08:52:00,
2013-05-29 04:01:00,69.0,63.0,-100.00,SSE,150,2.0,10.0,80,0.00,,,0.04,0.000000,,2013-05-29 09:01:00,
2013-05-29 04:11:00,69.0,63.0,-100.00,SSE,150,2.0,10.0,80,0.00,,,0.04,0.000000,,2013-05-29 09:11:00,
2013-05-29 04:33:00,68.0,63.0,-100.00,ESE,108,4.0,7.0,84,0.00,,,0.04,0.000000,,2013-05-29 09:33:00,
2013-05-29 04:42:00,68.0,63.0,-100.00,ESE,108,4.0,7.0,84,0.00,,,0.04,0.000000,,2013-05-29 09:42:00,
2013-05-29 04:52:00,68.0,63.0,-100.00,ESE,108,4.0,7.0,84,0.00,,,0.04,0.000000,,2013-05-29 09:52:00,
2013-05-29 05:03:00,68.0,63.0,-100.00,ESE,108,4.0,7.0,84,0.00,,,0.04,0.000000,,2013-05-29 10:03:00,
2013-05-29 05:12:00,68.0,63.0,-100.00,ESE,108,4.0,7.0,84,0.00,,,0.04,0.000000,,2013-05-29 10:12:00,
2013-05-29 05:33:00,67.0,63.0,-100.00,SE,133,4.0,6.0,87,0.00,,,0.00,0.000000,,2013-05-29 10:33:00,
2013-05-29 05:42:00,67.0,63.0,-100.00,SE,133,4.0,6.0,87,0.00,,,0.00,0.000000,,2013-05-29 10:42:00,
2013-05-29 05:53:00,67.0,63.0,-100.00,SE,133,4.0,6.0,87,0.00,,,0.00,0.000000,,2013-05-29 10:53:00,
2013-05-29 06:02:00,67.0,63.0,-100.00,SE,133,4.0,6.0,87,0.00,,,0.00,0.000000,,2013-05-29 11:02:00,
2013-05-29 06:12:00,67.0,63.0,-100.00,SE,133,4.0,6.0,87,0.00,,,0.00,0.000000,,2013-05-29 11:12:00,
2013-05-29 06:32:00,67.0,64.0,-100.00,SSE,151,4.0,7.0,89,0.00,,,0.00,3.000000,,2013-05-29 11:32:00,
2013-05-29 06:42:00,67.0,64.0,-100.00,SSE,151,4.0,7.0,89,0.00,,,0.00,3.000000,,2013-05-29 11:42:00,
2013-05-29 06:52:00,67.0,64.0,-100.00,SSE,151,4.0,7.0,89,0.00,,,0.00,3.000000,,2013-05-29 11:52:00,
2013-05-29 07:01:00,67.0,64.0,-100.00,SSE,151,4.0,7.0,89,0.00,,,0.00,3.000000,,2013-05-29 12:01:00,
2013-05-29 07:11:00,67.0,64.0,-100.00,SSE,151,4.0,7.0,89,0.00,,,0.00,3.000000,,2013-05-29 12:11:00,
2013-05-29 07:32:00,70.0,65.0,-100.00,SSE,157,5.0,11.0,83,0.00,,,0.00,110.000000,,2013-05-29 12:32:00,
2013-05-29 07:42:00,70.0,65.0,-100.00,SSE,157,5.0,11.0,83,0.00,,,0.00,110.000000,,2013-05-29 12:42:00,
2013-05-29 07:52:00,70.0,65.0,-100.00,SSE,157,5.0,11.0,83,0.00,,,0.00,110.000000,,2013-05-29 12:52:00,
2013-05-29 08:02:00,70.0,65.0,-100.00,SSE,157,5.0,11.0,83,0.00,,,0.00,110.000000,,2013-05-29 13:02:00,
2013-05-29 08:11:00,70.0,65.0,-100.00,SSE,157,5.0,11.0,83,0.00,,,0.00,110.000000,,2013-05-29 13:11:00,
2013-05-29 08:32:00,73.0,67.0,-100.00,SSE,165,7.0,12.0,81,0.00,,,0.00,257.000000,,2013-05-29 13:32:00,
2013-05-29 08:42:00,73.0,67.0,-100.00,SSE,165,7.0,12.0,81,0.00,,,0.00,257.000000,,2013-05-29 13:42:00,
2013-05-29 08:53:00,73.0,67.0,-100.00,SSE,165,7.0,12.0,81,0.00,,,0.00,257.000000,,2013-05-29 13:53:00,
2013-05-29 09:02:00,73.0,67.0,-100.00,SSE,165,7.0,12.0,81,0.00,,,0.00,257.000000,,2013-05-29 14:02:00,
2013-05-29 09:11:00,73.0,67.0,-100.00,SSE,165,7.0,12.0,81,0.00,,,0.00,257.000000,,2013-05-29 14:11:00,
2013-05-29 09:32:00,76.0,67.0,-100.00,South,175,8.0,16.0,74,0.00,,,-99.99,484.000000,,2013-05-29 14:32:00,
2013-05-29 09:42:00,76.0,67.0,-100.00,South,175,8.0,16.0,74,0.00,,,-99.99,484.000000,,2013-05-29 14:42:00,
2013-05-29 09:52:00,76.0,67.0,-100.00,South,175,8.0,16.0,74,0.00,,,-99.99,484.000000,,2013-05-29 14:52:00,
2013-05-29 10:01:00,76.0,67.0,-100.00,South,175,8.0,16.0,74,0.00,,,-99.99,484.000000,,2013-05-29 15:01:00,
2013-05-29 10:11:00,76.0,67.0,-100.00,South,175,8.0,16.0,74,0.00,,,-99.99,484.000000,,2013-05-29 15:11:00,
2013-05-29 10:33:00,79.0,67.0,-100.00,South,183,8.0,19.0,67,0.00,,,0.00,690.000000,,2013-05-29 15:33:00,
2013-05-29 10:43:00,79.0,67.0,-100.00,South,183,8.0,19.0,67,0.00,,,0.00,690.000000,,2013-05-29 15:43:00,
2013-05-29 10:53:00,79.0,67.0,-100.00,South,183,8.0,19.0,67,0.00,,,0.00,690.000000,,2013-05-29 15:53:00,
2013-05-29 11:03:00,79.0,67.0,-100.00,South,183,8.0,19.0,67,0.00,,,0.00,690.000000,,2013-05-29 16:03:00,
2013-05-29 11:12:00,79.0,67.0,-100.00,South,183,8.0,19.0,67,0.00,,,0.00,690.000000,,2013-05-29 16:12:00,
2013-05-29 11:33:00,81.0,66.0,-100.00,South,185,9.0,16.0,61,0.00,,,0.00,822.000000,,2013-05-29 16:33:00,
2013-05-29 11:42:00,81.0,66.0,-100.00,South,185,9.0,16.0,61,0.00,,,0.00,822.000000,,2013-05-29 16:42:00,
2013-05-29 11:52:00,81.0,66.0,-100.00,South,185,9.0,16.0,61,0.00,,,0.00,822.000000,,2013-05-29 16:52:00,
2013-05-29 12:02:00,81.0,66.0,-100.00,South,185,9.0,16.0,61,0.00,,,0.00,822.000000,,2013-05-29 17:02:00,
2013-05-29 12:12:00,81.0,66.0,-100.00,South,185,9.0,16.0,61,0.00,,,0.00,822.000000,,2013-05-29 17:12:00,
2013-05-29 12:13:00,81.0,66.0,-100.00,South,175,8.0,17.0,60,0.00,,,0.00,870.000000,,2013-05-29 17:13:00,
2013-05-29 12:32:00,81.0,66.0,-100.00,South,175,8.0,17.0,60,0.00,,,0.00,870.000000,,2013-05-29 17:32:00,
2013-05-29 12:43:00,81.0,66.0,-100.00,South,175,8.0,17.0,60,0.00,,,0.00,870.000000,,2013-05-29 17:43:00,
2013-05-29 12:52:00,81.0,66.0,-100.00,South,175,8.0,17.0,60,0.00,,,0.00,870.000000,,2013-05-29 17:52:00,
2013-05-29 13:01:00,81.0,66.0,-100.00,South,175,8.0,17.0,60,0.00,,,0.00,870.000000,,2013-05-29 18:01:00,
2013-05-29 13:32:00,81.0,65.0,-100.00,South,186,8.0,21.0,58,0.00,,,0.00,780.000000,,2013-05-29 18:32:00,
2013-05-29 13:42:00,81.0,65.0,-100.00,South,186,8.0,21.0,58,0.00,,,0.00,780.000000,,2013-05-29 18:42:00,
2013-05-29 13:52:00,81.0,65.0,-100.00,South,186,8.0,21.0,58,0.00,,,0.00,780.000000,,2013-05-29 18:52:00,
2013-05-29 14:02:00,81.0,65.0,-100.00,South,186,8.0,21.0,58,0.00,,,0.00,780.000000,,2013-05-29 19:02:00,
2013-05-29 14:11:00,81.0,65.0,-100.00,South,186,8.0,21.0,58,0.00,,,0.00,780.000000,,2013-05-29 19:11:00,
2013-05-29 14:32:00,83.0,65.0,-100.00,SSE,162,8.0,17.0,55,0.00,,,0.00,899.000000,,2013-05-29 19:32:00,
2013-05-29 14:44:00,83.0,65.0,-100.00,SSE,162,8.0,17.0,55,0.00,,,0.00,899.000000,,2013-05-29 19:44:00,
2013-05-29 14:53:00,83.0,65.0,-100.00,SSE,162,8.0,17.0,55,0.00,,,0.00,899.000000,,2013-05-29 19:53:00,
2013-05-29 15:03:00,83.0,65.0,-100.00,SSE,162,8.0,17.0,55,0.00,,,0.00,899.000000,,2013-05-29 20:03:00,
2013-05-29 15:11:00,83.0,65.0,-100.00,SSE,162,8.0,17.0,55,0.00,,,0.00,899.000000,,2013-05-29 20:11:00,
2013-05-29 15:33:00,82.0,63.0,-100.00,SSE,154,8.0,19.0,53,0.00,,,0.00,722.000000,,2013-05-29 20:33:00,
2013-05-29 15:42:00,82.0,63.0,-100.00,SSE,154,8.0,19.0,53,0.00,,,0.00,722.000000,,2013-05-29 20:42:00,
2013-05-29 15:53:00,82.0,63.0,-100.00,SSE,154,8.0,19.0,53,0.00,,,0.00,722.000000,,2013-05-29 20:53:00,
2013-05-29 16:02:00,82.0,63.0,-100.00,SSE,154,8.0,19.0,53,0.00,,,0.00,722.000000,,2013-05-29 21:02:00,
2013-05-29 16:12:00,82.0,63.0,-100.00,SSE,154,8.0,19.0,53,0.00,,,0.00,722.000000,,2013-05-29 21:12:00,
2013-05-29 16:33:00,82.0,64.0,-100.00,South,190,9.0,17.0,55,0.00,,,0.00,672.000000,,2013-05-29 21:33:00,
2013-05-29 16:44:00,82.0,64.0,-100.00,South,190,9.0,17.0,55,0.00,,,0.00,672.000000,,2013-05-29 21:44:00,
2013-05-29 16:53:00,82.0,64.0,-100.00,South,190,9.0,17.0,55,0.00,,,0.00,672.000000,,2013-05-29 21:53:00,
2013-05-29 17:03:00,82.0,64.0,-100.00,South,190,9.0,17.0,55,0.00,,,0.00,672.000000,,2013-05-29 22:03:00,
2013-05-29 17:12:00,82.0,64.0,-100.00,South,190,9.0,17.0,55,0.00,,,0.00,672.000000,,2013-05-29 22:12:00,
2013-05-29 17:34:00,81.0,66.0,-100.00,South,169,7.0,19.0,60,0.00,,,0.00,351.000000,,2013-05-29 22:34:00,
2013-05-29 17:42:00,81.0,66.0,-100.00,South,169,7.0,19.0,60,0.00,,,0.00,351.000000,,2013-05-29 22:42:00,
2013-05-29 17:53:00,81.0,66.0,-100.00,South,169,7.0,19.0,60,0.00,,,0.00,351.000000,,2013-05-29 22:53:00,
2013-05-29 18:02:00,81.0,66.0,-100.00,South,169,7.0,19.0,60,0.00,,,0.00,351.000000,,2013-05-29 23:02:00,
2013-05-29 18:12:00,81.0,66.0,-100.00,South,169,7.0,19.0,60,0.00,,,0.00,351.000000,,2013-05-29 23:12:00,
2013-05-29 18:33:00,80.0,64.0,-100.00,SSE,161,7.0,15.0,59,0.00,,,0.00,380.000000,,2013-05-29 23:33:00,
2013-05-29 18:42:00,80.0,64.0,-100.00,SSE,161,7.0,15.0,59,0.00,,,0.00,380.000000,,2013-05-29 23:42:00,
2013-05-29 18:53:00,80.0,64.0,-100.00,SSE,161,7.0,15.0,59,0.00,,,0.00,380.000000,,2013-05-29 23:53:00,
2013-05-29 19:01:00,80.0,64.0,-100.00,SSE,161,7.0,15.0,59,0.00,,,0.00,380.000000,,2013-05-30 00:01:00,
2013-05-29 19:11:00,80.0,64.0,-100.00,SSE,161,7.0,15.0,59,0.00,,,0.00,380.000000,,2013-05-30 00:11:00,
2013-05-29 20:32:00,77.0,63.0,-100.00,SSE,168,7.0,15.0,63,-99.99,,,0.00,50.000000,,2013-05-30 01:32:00,
2013-05-29 20:42:00,77.0,63.0,-100.00,SSE,168,7.0,15.0,63,-99.99,,,0.00,50.000000,,2013-05-30 01:42:00,
2013-05-29 20:52:00,77.0,63.0,-100.00,SSE,168,7.0,15.0,63,-99.99,,,0.00,50.000000,,2013-05-30 01:52:00,
2013-05-29 21:01:00,77.0,63.0,-100.00,SSE,168,7.0,15.0,63,-99.99,,,0.00,50.000000,,2013-05-30 02:01:00,
2013-05-29 21:11:00,77.0,63.0,-100.00,SSE,168,7.0,15.0,63,-99.99,,,0.00,50.000000,,2013-05-30 02:11:00,
2013-05-29 21:32:00,75.0,62.0,-100.00,South,183,5.0,14.0,63,0.00,,,0.00,2.000000,,2013-05-30 02:32:00,
2013-05-29 21:42:00,75.0,62.0,-100.00,South,183,5.0,14.0,63,0.00,,,0.00,2.000000,,2013-05-30 02:42:00,
2013-05-29 21:52:00,75.0,62.0,-100.00,South,183,5.0,14.0,63,0.00,,,0.00,2.000000,,2013-05-30 02:52:00,
2013-05-29 22:02:00,75.0,62.0,-100.00,South,183,5.0,14.0,63,0.00,,,0.00,2.000000,,2013-05-30 03:02:00,
2013-05-29 22:11:00,75.0,62.0,-100.00,South,183,5.0,14.0,63,0.00,,,0.00,2.000000,,2013-05-30 03:11:00,
2013-05-29 22:33:00,74.0,61.0,-100.00,South,171,5.0,13.0,65,0.00,,,0.00,0.000000,,2013-05-30 03:33:00,
2013-05-29 22:43:00,74.0,61.0,-100.00,South,171,5.0,13.0,65,0.00,,,0.00,0.000000,,2013-05-30 03:43:00,
2013-05-29 22:53:00,74.0,61.0,-100.00,South,171,5.0,13.0,65,0.00,,,0.00,0.000000,,2013-05-30 03:53:00,
2013-05-29 23:03:00,74.0,61.0,-100.00,South,171,5.0,13.0,65,0.00,,,0.00,0.000000,,2013-05-30 04:03:00,
2013-05-29 23:12:00,74.0,61.0,-100.00,South,171,5.0,13.0,65,0.00,,,0.00,0.000000,,2013-05-30 04:12:00,
2013-05-29 23:33:00,73.0,61.0,-100.00,SSE,151,6.0,12.0,65,0.00,,,0.00,0.000000,,2013-05-30 04:33:00,
2013-05-29 23:42:00,73.0,61.0,-100.00,SSE,151,6.0,12.0,65,0.00,,,0.00,0.000000,,2013-05-30 04:42:00,
2013-05-29 23:53:00,73.0,61.0,-100.00,SSE,151,6.0,12.0,65,0.00,,,0.00,0.000000,,2013-05-30 04:53:00,